sensor_id;sensor_type;location;lat;lon;timestamp;pressure;altitude;pressure_sealevel;temperature;humidity
7824;BME280;3957;48.61947800;9.05303100;2023-04-01T00:00:04;94793.19;;;5.39;100.00
7824;BME280;3957;48.61947800;9.05303100;2023-04-01T00:01:13;94787.66;;;5.41;100.00
7824;BME280;3957;48.61947800;9.05303100;2023-04-01T00:02:14;94803.19;;;5.51;100.00
7824;BME280;3957;48.61947800;9.05303100;2023-04-01T00:03:15;94804.81;;;5.45;100.00
7824;BME280;3957;48.61947800;9.05303100;2023-04-01T00:04:16;94793.41;;;5.44;100.00
7824;BME280;3957;48.61947800;9.05303100;2023-04-01T00:05:16;94789.53;;;5.54;100.00
7824;BME280;3957;48.61947800;9.05303100;2023-04-01T00:06:18;94789.91;;;5.51;100.00
7824;BME280;3957;48.61947800;9.05303100;2023-04-01T00:07:18;94795.22;;;5.44;100.00
7824;BME280;3957;48.61947800;9.05303100;2023-04-01T00:08:19;94784.00;;;5.42;100.00
7824;BME280;3957;48.61947800;9.05303100;2023-04-01T00:09:19;94791.53;;;5.38;100.00
7824;BME280;3957;48.61947800;9.05303100;2023-04-01T00:10:20;94780.94;;;5.45;100.00
7824;BME280;3957;48.61947800;9.05303100;2023-04-01T00:11:20;94785.22;;;5.46;100.00
7824;BME280;3957;48.61947800;9.05303100;2023-04-01T00:12:21;94786.66;;;5.42;100.00
7824;BME280;3957;48.61947800;9.05303100;2023-04-01T00:13:21;94786.44;;;5.43;100.00
7824;BME280;3957;48.61947800;9.05303100;2023-04-01T00:14:21;94767.47;;;5.40;100.00
7824;BME280;3957;48.61947800;9.05303100;2023-04-01T00:15:22;94777.06;;;5.41;100.00
7824;BME280;3957;48.61947800;9.05303100;2023-04-01T00:16:23;94776.84;;;5.36;100.00
7824;BME280;3957;48.61947800;9.05303100;2023-04-01T00:17:23;94782.78;;;5.38;100.00
7824;BME280;3957;48.61947800;9.05303100;2023-04-01T00:18:24;94779.72;;;5.41;100.00
7824;BME280;3957;48.61947800;9.05303100;2023-04-01T00:19:24;94776.47;;;5.45;100.00
7824;BME280;3957;48.61947800;9.05303100;2023-04-01T00:20:25;94779.72;;;5.41;100.00
7824;BME280;3957;48.61947800;9.05303100;2023-04-01T00:21:26;94769.31;;;5.33;100.00
7824;BME280;3957;48.61947800;9.05303100;2023-04-01T00:22:26;94778.47;;;5.37;100.00
7824;BME280;3957;48.61947800;9.05303100;2023-04-01T00:23:27;94775.03;;;5.30;100.00
7824;BME280;3957;48.61947800;9.05303100;2023-04-01T00:24:27;94782.19;;;5.29;100.00
7824;BME280;3957;48.61947800;9.05303100;2023-04-01T00:25:28;94769.28;;;5.26;100.00
7824;BME280;3957;48.61947800;9.05303100;2023-04-01T00:26:28;94781.13;;;5.37;100.00
7824;BME280;3957;48.61947800;9.05303100;2023-04-01T00:27:29;94777.28;;;5.39;100.00
7824;BME280;3957;48.61947800;9.05303100;2023-04-01T00:28:29;94782.56;;;5.39;100.00
7824;BME280;3957;48.61947800;9.05303100;2023-04-01T00:29:30;94773.81;;;5.32;100.00
7824;BME280;3957;48.61947800;9.05303100;2023-04-01T00:30:31;94772.16;;;5.38;100.00
7824;BME280;3957;48.61947800;9.05303100;2023-04-01T00:31:32;94776.84;;;5.42;100.00
7824;BME280;3957;48.61947800;9.05303100;2023-04-01T00:32:33;94769.31;;;5.39;100.00
7824;BME280;3957;48.61947800;9.05303100;2023-04-01T00:33:33;94773.41;;;5.42;100.00
7824;BME280;3957;48.61947800;9.05303100;2023-04-01T00:34:34;94773.38;;;5.35;100.00
7824;BME280;3957;48.61947800;9.05303100;2023-04-01T00:35:34;94768.50;;;5.39;100.00
7824;BME280;3957;48.61947800;9.05303100;2023-04-01T00:36:35;94769.09;;;5.34;100.00
7824;BME280;3957;48.61947800;9.05303100;2023-04-01T00:37:37;94774.81;;;5.31;100.00
7824;BME280;3957;48.61947800;9.05303100;2023-04-01T00:38:40;94767.88;;;5.30;100.00
7824;BME280;3957;48.61947800;9.05303100;2023-04-01T00:39:41;94777.69;;;5.36;100.00
7824;BME280;3957;48.61947800;9.05303100;2023-04-01T00:40:44;94765.44;;;5.42;100.00
7824;BME280;3957;48.61947800;9.05303100;2023-04-01T00:41:44;94766.88;;;5.38;100.00
7824;BME280;3957;48.61947800;9.05303100;2023-04-01T00:42:45;94767.28;;;5.28;100.00
7824;BME280;3957;48.61947800;9.05303100;2023-04-01T00:43:48;94773.19;;;5.30;100.00
7824;BME280;3957;48.61947800;9.05303100;2023-04-01T00:44:53;94779.13;;;5.39;100.00
7824;BME280;3957;48.61947800;9.05303100;2023-04-01T00:45:54;94776.88;;;5.29;100.00
7824;BME280;3957;48.61947800;9.05303100;2023-04-01T00:46:55;94776.44;;;5.32;100.00
7824;BME280;3957;48.61947800;9.05303100;2023-04-01T00:47:59;94772.75;;;5.40;100.00
7824;BME280;3957;48.61947800;9.05303100;2023-04-01T00:49:02;94771.16;;;5.39;100.00
7824;BME280;3957;48.61947800;9.05303100;2023-04-01T00:50:02;94770.75;;;5.42;100.00
7824;BME280;3957;48.61947800;9.05303100;2023-04-01T00:51:12;94776.03;;;5.42;100.00
7824;BME280;3957;48.61947800;9.05303100;2023-04-01T00:52:17;94772.19;;;5.44;100.00
7824;BME280;3957;48.61947800;9.05303100;2023-04-01T00:53:19;94775.44;;;5.47;100.00
7824;BME280;3957;48.61947800;9.05303100;2023-04-01T00:54:21;94773.59;;;5.34;100.00
7824;BME280;3957;48.61947800;9.05303100;2023-04-01T00:55:25;94768.09;;;5.35;100.00
7824;BME280;3957;48.61947800;9.05303100;2023-04-01T00:56:32;94765.66;;;5.40;100.00
7824;BME280;3957;48.61947800;9.05303100;2023-04-01T00:57:37;94768.72;;;5.31;100.00
7824;BME280;3957;48.61947800;9.05303100;2023-04-01T00:58:42;94761.56;;;5.31;100.00
7824;BME280;3957;48.61947800;9.05303100;2023-04-01T00:59:46;94773.19;;;5.23;100.00
7824;BME280;3957;48.61947800;9.05303100;2023-04-01T01:00:49;94769.50;;;5.24;100.00
7824;BME280;3957;48.61947800;9.05303100;2023-04-01T01:01:50;94778.28;;;5.25;100.00
7824;BME280;3957;48.61947800;9.05303100;2023-04-01T01:02:51;94774.81;;;5.31;100.00
7824;BME280;3957;48.61947800;9.05303100;2023-04-01T01:03:52;94777.47;;;5.38;100.00
7824;BME280;3957;48.61947800;9.05303100;2023-04-01T01:04:52;94772.78;;;5.33;100.00
7824;BME280;3957;48.61947800;9.05303100;2023-04-01T01:07:27;94778.06;;;5.40;100.00
7824;BME280;3957;48.61947800;9.05303100;2023-04-01T01:09:52;94788.09;;;5.38;100.00
7824;BME280;3957;48.61947800;9.05303100;2023-04-01T01:10:55;94780.94;;;5.32;100.00
7824;BME280;3957;48.61947800;9.05303100;2023-04-01T01:13:10;94779.91;;;5.33;100.00
7824;BME280;3957;48.61947800;9.05303100;2023-04-01T01:16:43;94783.38;;;5.40;100.00
7824;BME280;3957;48.61947800;9.05303100;2023-04-01T01:17:58;94776.84;;;5.36;100.00
7824;BME280;3957;48.61947800;9.05303100;2023-04-01T01:19:12;94777.28;;;5.46;100.00
7824;BME280;3957;48.61947800;9.05303100;2023-04-01T01:27:18;94767.88;;;5.43;100.00
7824;BME280;3957;48.61947800;9.05303100;2023-04-01T01:30:50;94781.34;;;5.35;100.00
7824;BME280;3957;48.61947800;9.05303100;2023-04-01T01:33:53;94784.22;;;5.40;100.00
7824;BME280;3957;48.61947800;9.05303100;2023-04-01T01:36:25;94785.81;;;5.48;100.00
7824;BME280;3957;48.61947800;9.05303100;2023-04-01T01:37:27;94782.78;;;5.44;100.00
7824;BME280;3957;48.61947800;9.05303100;2023-04-01T01:38:31;94783.38;;;5.40;100.00
7824;BME280;3957;48.61947800;9.05303100;2023-04-01T01:39:36;94786.88;;;5.47;100.00
7824;BME280;3957;48.61947800;9.05303100;2023-04-01T01:40:39;94781.94;;;5.44;100.00
7824;BME280;3957;48.61947800;9.05303100;2023-04-01T01:41:42;94784.59;;;5.44;100.00
7824;BME280;3957;48.61947800;9.05303100;2023-04-01T01:42:48;94779.50;;;5.42;100.00
7824;BME280;3957;48.61947800;9.05303100;2023-04-01T01:43:53;94776.03;;;5.35;100.00
7824;BME280;3957;48.61947800;9.05303100;2023-04-01T01:44:56;94782.56;;;5.39;100.00
7824;BME280;3957;48.61947800;9.05303100;2023-04-01T01:46:04;94785.84;;;5.41;100.00
7824;BME280;3957;48.61947800;9.05303100;2023-04-01T01:47:05;94784.00;;;5.42;100.00
7824;BME280;3957;48.61947800;9.05303100;2023-04-01T01:48:06;94782.16;;;5.36;100.00
7824;BME280;3957;48.61947800;9.05303100;2023-04-01T01:49:10;94776.44;;;5.32;100.00
7824;BME280;3957;48.61947800;9.05303100;2023-04-01T01:50:12;94779.91;;;5.26;100.00
7824;BME280;3957;48.61947800;9.05303100;2023-04-01T01:51:14;94777.25;;;5.26;100.00
7824;BME280;3957;48.61947800;9.05303100;2023-04-01T01:52:16;94772.34;;;5.16;100.00
7824;BME280;3957;48.61947800;9.05303100;2023-04-01T01:53:17;94778.88;;;5.14;100.00
7824;BME280;3957;48.61947800;9.05303100;2023-04-01T01:54:18;94784.78;;;5.09;100.00
7824;BME280;3957;48.61947800;9.05303100;2023-04-01T01:55:28;94778.66;;;5.02;100.00
7824;BME280;3957;48.61947800;9.05303100;2023-04-01T01:56:30;94780.88;;;4.98;100.00
7824;BME280;3957;48.61947800;9.05303100;2023-04-01T01:57:34;94779.69;;;5.07;100.00
7824;BME280;3957;48.61947800;9.05303100;2023-04-01T01:58:43;94774.19;;;5.16;100.00
7824;BME280;3957;48.61947800;9.05303100;2023-04-01T01:59:48;94773.56;;;5.20;100.00
7824;BME280;3957;48.61947800;9.05303100;2023-04-01T02:01:02;94768.69;;;5.17;100.00
7824;BME280;3957;48.61947800;9.05303100;2023-04-01T02:02:05;94773.38;;;5.15;100.00
7824;BME280;3957;48.61947800;9.05303100;2023-04-01T02:03:08;94763.19;;;5.19;100.00
7824;BME280;3957;48.61947800;9.05303100;2023-04-01T02:04:09;94779.94;;;5.19;100.00
7824;BME280;3957;48.61947800;9.05303100;2023-04-01T02:05:16;94770.09;;;5.13;100.00
7824;BME280;3957;48.61947800;9.05303100;2023-04-01T02:06:21;94778.69;;;5.08;100.00
7824;BME280;3957;48.61947800;9.05303100;2023-04-01T02:07:25;94772.75;;;5.13;100.00
7824;BME280;3957;48.61947800;9.05303100;2023-04-01T02:08:36;94775.00;;;5.09;100.00
7824;BME280;3957;48.61947800;9.05303100;2023-04-01T02:09:39;94772.72;;;5.00;100.00
7824;BME280;3957;48.61947800;9.05303100;2023-04-01T02:10:47;94775.41;;;5.06;100.00
7824;BME280;3957;48.61947800;9.05303100;2023-04-01T02:11:56;94775.81;;;5.10;100.00
7824;BME280;3957;48.61947800;9.05303100;2023-04-01T02:13:00;94777.03;;;5.01;100.00
7824;BME280;3957;48.61947800;9.05303100;2023-04-01T02:14:12;94776.81;;;5.02;100.00
7824;BME280;3957;48.61947800;9.05303100;2023-04-01T02:15:15;94772.72;;;5.00;100.00
7824;BME280;3957;48.61947800;9.05303100;2023-04-01T02:17:45;94781.50;;;4.93;100.00
7824;BME280;3957;48.61947800;9.05303100;2023-04-01T02:18:50;94782.28;;;4.87;100.00
7824;BME280;3957;48.61947800;9.05303100;2023-04-01T02:20:06;94788.84;;;4.85;100.00
7824;BME280;3957;48.61947800;9.05303100;2023-04-01T02:21:10;94790.66;;;4.84;100.00
7824;BME280;3957;48.61947800;9.05303100;2023-04-01T02:22:18;94788.44;;;4.94;100.00
7824;BME280;3957;48.61947800;9.05303100;2023-04-01T02:23:20;94777.63;;;4.89;100.00
7824;BME280;3957;48.61947800;9.05303100;2023-04-01T02:24:21;94788.41;;;4.81;100.00
7824;BME280;3957;48.61947800;9.05303100;2023-04-01T02:25:28;94791.06;;;4.81;100.00
7824;BME280;3957;48.61947800;9.05303100;2023-04-01T02:26:29;94784.13;;;4.87;100.00
7824;BME280;3957;48.61947800;9.05303100;2023-04-01T02:27:31;94781.72;;;4.92;100.00
7824;BME280;3957;48.61947800;9.05303100;2023-04-01T02:28:33;94788.22;;;4.89;100.00
7824;BME280;3957;48.61947800;9.05303100;2023-04-01T02:29:34;94781.31;;;4.95;100.00
7824;BME280;3957;48.61947800;9.05303100;2023-04-01T02:30:36;94783.34;;;4.93;100.00
7824;BME280;3957;48.61947800;9.05303100;2023-04-01T02:31:38;94788.63;;;5.00;100.00
7824;BME280;3957;48.61947800;9.05303100;2023-04-01T02:32:39;94790.72;;;5.04;100.00
7824;BME280;3957;48.61947800;9.05303100;2023-04-01T02:33:40;94790.72;;;5.04;100.00
7824;BME280;3957;48.61947800;9.05303100;2023-04-01T02:34:42;94784.38;;;4.99;100.00
7824;BME280;3957;48.61947800;9.05303100;2023-04-01T02:35:43;94784.56;;;5.04;100.00
7824;BME280;3957;48.61947800;9.05303100;2023-04-01T02:36:43;94794.16;;;5.05;100.00
7824;BME280;3957;48.61947800;9.05303100;2023-04-01T02:37:45;94797.81;;;4.90;100.00
7824;BME280;3957;48.61947800;9.05303100;2023-04-01T02:38:49;94788.44;;;4.94;100.00
7824;BME280;3957;48.61947800;9.05303100;2023-04-01T02:39:51;94792.50;;;4.97;100.00
7824;BME280;3957;48.61947800;9.05303100;2023-04-01T02:40:57;94791.91;;;4.95;100.00
7824;BME280;3957;48.61947800;9.05303100;2023-04-01T02:41:59;94793.13;;;4.99;100.00
7824;BME280;3957;48.61947800;9.05303100;2023-04-01T02:42:59;94784.97;;;4.94;100.00
7824;BME280;3957;48.61947800;9.05303100;2023-04-01T02:44:00;94796.81;;;5.05;100.00
7824;BME280;3957;48.61947800;9.05303100;2023-04-01T02:45:00;94787.41;;;4.96;100.00
7824;BME280;3957;48.61947800;9.05303100;2023-04-01T02:46:01;94789.47;;;5.00;100.00
7824;BME280;3957;48.61947800;9.05303100;2023-04-01T02:47:02;94789.25;;;4.95;100.00
7824;BME280;3957;48.61947800;9.05303100;2023-04-01T02:48:03;94783.72;;;4.90;100.00
7824;BME280;3957;48.61947800;9.05303100;2023-04-01T02:49:03;94788.22;;;4.89;100.00
7824;BME280;3957;48.61947800;9.05303100;2023-04-01T02:50:05;94788.22;;;4.89;100.00
7824;BME280;3957;48.61947800;9.05303100;2023-04-01T02:51:08;94782.13;;;5.02;100.00
7824;BME280;3957;48.61947800;9.05303100;2023-04-01T02:52:08;94773.31;;;4.88;100.00
7824;BME280;3957;48.61947800;9.05303100;2023-04-01T02:53:09;94781.50;;;4.93;100.00
7824;BME280;3957;48.61947800;9.05303100;2023-04-01T02:54:09;94781.91;;;4.90;100.00
7824;BME280;3957;48.61947800;9.05303100;2023-04-01T02:55:10;94776.63;;;4.90;100.00
7824;BME280;3957;48.61947800;9.05303100;2023-04-01T02:56:10;94768.00;;;4.82;100.00
7824;BME280;3957;48.61947800;9.05303100;2023-04-01T02:57:10;94771.28;;;4.84;100.00
7824;BME280;3957;48.61947800;9.05303100;2023-04-01T02:58:11;94779.25;;;4.84;100.00
7824;BME280;3957;48.61947800;9.05303100;2023-04-01T02:59:12;94778.59;;;4.82;100.00
7824;BME280;3957;48.61947800;9.05303100;2023-04-01T03:00:13;94782.88;;;4.76;100.00
7824;BME280;3957;48.61947800;9.05303100;2023-04-01T03:01:13;94777.97;;;4.73;100.00
7824;BME280;3957;48.61947800;9.05303100;2023-04-01T03:02:14;94778.78;;;4.73;100.00
7824;BME280;3957;48.61947800;9.05303100;2023-04-01T03:03:15;94778.59;;;4.75;100.00
7824;BME280;3957;48.61947800;9.05303100;2023-04-01T03:04:15;94771.88;;;4.79;100.00
7824;BME280;3957;48.61947800;9.05303100;2023-04-01T03:05:16;94784.50;;;4.70;100.00
7824;BME280;3957;48.61947800;9.05303100;2023-04-01T03:06:17;94783.88;;;4.75;100.00
7824;BME280;3957;48.61947800;9.05303100;2023-04-01T03:07:17;94768.00;;;4.68;100.00
7824;BME280;3957;48.61947800;9.05303100;2023-04-01T03:08:17;94778.38;;;4.63;100.00
7824;BME280;3957;48.61947800;9.05303100;2023-04-01T03:09:18;94781.63;;;4.58;100.00
7824;BME280;3957;48.61947800;9.05303100;2023-04-01T03:10:18;94776.31;;;4.58;100.00
7824;BME280;3957;48.61947800;9.05303100;2023-04-01T03:11:19;94781.66;;;4.72;100.00
7824;BME280;3957;48.61947800;9.05303100;2023-04-01T03:12:19;94783.50;;;4.71;100.00
7824;BME280;3957;48.61947800;9.05303100;2023-04-01T03:13:24;94778.41;;;4.70;100.00
7824;BME280;3957;48.61947800;9.05303100;2023-04-01T03:14:25;94779.19;;;4.70;100.00
7824;BME280;3957;48.61947800;9.05303100;2023-04-01T03:15:25;94782.28;;;4.74;100.00
7824;BME280;3957;48.61947800;9.05303100;2023-04-01T03:16:25;94780.41;;;4.68;100.00
7824;BME280;3957;48.61947800;9.05303100;2023-04-01T03:17:26;94782.84;;;4.69;100.00
7824;BME280;3957;48.61947800;9.05303100;2023-04-01T03:18:27;94778.59;;;4.68;100.00
7824;BME280;3957;48.61947800;9.05303100;2023-04-01T03:19:28;94774.94;;;4.76;100.00
7824;BME280;3957;48.61947800;9.05303100;2023-04-01T03:20:29;94774.91;;;4.69;100.00
7824;BME280;3957;48.61947800;9.05303100;2023-04-01T03:21:29;94782.47;;;4.72;100.00
7824;BME280;3957;48.61947800;9.05303100;2023-04-01T03:22:30;94781.66;;;4.72;100.00
7824;BME280;3957;48.61947800;9.05303100;2023-04-01T03:23:31;94780.44;;;4.74;100.00
7824;BME280;3957;48.61947800;9.05303100;2023-04-01T03:24:31;94776.97;;;4.74;100.00
7824;BME280;3957;48.61947800;9.05303100;2023-04-01T03:25:31;94780.19;;;4.63;100.00
7824;BME280;3957;48.61947800;9.05303100;2023-04-01T03:26:32;94777.56;;;4.69;100.00
7824;BME280;3957;48.61947800;9.05303100;2023-04-01T03:27:34;94780.78;;;4.58;100.00
7824;BME280;3957;48.61947800;9.05303100;2023-04-01T03:28:36;94780.38;;;4.61;100.00
7824;BME280;3957;48.61947800;9.05303100;2023-04-01T03:29:37;94772.88;;;4.65;100.00
7824;BME280;3957;48.61947800;9.05303100;2023-04-01T03:30:38;94780.81;;;4.65;100.00
7824;BME280;3957;48.61947800;9.05303100;2023-04-01T03:31:38;94783.47;;;4.65;100.00
7824;BME280;3957;48.61947800;9.05303100;2023-04-01T03:32:38;94774.06;;;4.62;100.00
7824;BME280;3957;48.61947800;9.05303100;2023-04-01T03:33:39;94777.75;;;4.54;100.00
7824;BME280;3957;48.61947800;9.05303100;2023-04-01T03:34:40;94771.03;;;4.58;100.00
7824;BME280;3957;48.61947800;9.05303100;2023-04-01T03:35:40;94773.44;;;4.53;100.00
7824;BME280;3957;48.61947800;9.05303100;2023-04-01T03:36:41;94773.03;;;4.56;100.00
7824;BME280;3957;48.61947800;9.05303100;2023-04-01T03:37:41;94773.84;;;4.50;100.00
7824;BME280;3957;48.61947800;9.05303100;2023-04-01T03:38:43;94778.31;;;4.50;100.00
7824;BME280;3957;48.61947800;9.05303100;2023-04-01T03:39:46;94770.38;;;4.50;100.00
7824;BME280;3957;48.61947800;9.05303100;2023-04-01T03:40:46;94776.06;;;4.47;100.00
7824;BME280;3957;48.61947800;9.05303100;2023-04-01T03:41:46;94778.28;;;4.43;100.00
7824;BME280;3957;48.61947800;9.05303100;2023-04-01T03:42:47;94775.63;;;4.43;100.00
7824;BME280;3957;48.61947800;9.05303100;2023-04-01T03:43:48;94783.19;;;4.39;100.00
7824;BME280;3957;48.61947800;9.05303100;2023-04-01T03:44:49;94767.50;;;4.38;100.00
7824;BME280;3957;48.61947800;9.05303100;2023-04-01T03:45:50;94775.59;;;4.36;100.00
7824;BME280;3957;48.61947800;9.05303100;2023-04-01T03:46:51;94774.75;;;4.29;100.00
7824;BME280;3957;48.61947800;9.05303100;2023-04-01T03:47:51;94778.84;;;4.32;100.00
7824;BME280;3957;48.61947800;9.05303100;2023-04-01T03:48:52;94783.59;;;4.43;100.00
7824;BME280;3957;48.61947800;9.05303100;2023-04-01T03:49:53;94773.00;;;4.50;100.00
7824;BME280;3957;48.61947800;9.05303100;2023-04-01T03:50:53;94780.59;;;4.59;100.00
7824;BME280;3957;48.61947800;9.05303100;2023-04-01T03:51:54;94778.97;;;4.58;100.00
7824;BME280;3957;48.61947800;9.05303100;2023-04-01T03:52:54;94777.91;;;4.53;100.00
7824;BME280;3957;48.61947800;9.05303100;2023-04-01T03:53:55;94776.09;;;4.53;100.00
7824;BME280;3957;48.61947800;9.05303100;2023-04-01T03:54:55;94777.94;;;4.59;100.00
7824;BME280;3957;48.61947800;9.05303100;2023-04-01T03:55:56;94770.81;;;4.67;100.00
7824;BME280;3957;48.61947800;9.05303100;2023-04-01T03:56:57;94778.41;;;4.70;100.00
7824;BME280;3957;48.61947800;9.05303100;2023-04-01T03:57:59;94766.94;;;4.63;100.00
7824;BME280;3957;48.61947800;9.05303100;2023-04-01T03:59:02;94762.47;;;4.63;100.00
7824;BME280;3957;48.61947800;9.05303100;2023-04-01T04:00:03;94765.69;;;4.52;100.00
7824;BME280;3957;48.61947800;9.05303100;2023-04-01T04:01:19;94769.59;;;4.56;100.00
7824;BME280;3957;48.61947800;9.05303100;2023-04-01T04:02:22;94764.06;;;4.51;100.00
7824;BME280;3957;48.61947800;9.05303100;2023-04-01T04:03:22;94757.69;;;4.38;100.00
7824;BME280;3957;48.61947800;9.05303100;2023-04-01T04:04:23;94760.13;;;4.33;100.00
7824;BME280;3957;48.61947800;9.05303100;2023-04-01T04:05:24;94757.88;;;4.30;100.00
7824;BME280;3957;48.61947800;9.05303100;2023-04-01T04:06:26;94751.38;;;4.33;100.00
7824;BME280;3957;48.61947800;9.05303100;2023-04-01T04:07:27;94750.53;;;4.25;100.00
7824;BME280;3957;48.61947800;9.05303100;2023-04-01T04:08:34;94757.00;;;4.16;100.00
7824;BME280;3957;48.61947800;9.05303100;2023-04-01T04:09:34;94756.56;;;4.13;100.00
7824;BME280;3957;48.61947800;9.05303100;2023-04-01T04:10:35;94749.66;;;4.18;100.00
7824;BME280;3957;48.61947800;9.05303100;2023-04-01T04:11:35;94750.28;;;4.20;100.00
7824;BME280;3957;48.61947800;9.05303100;2023-04-01T04:12:36;94751.72;;;4.23;100.00
7824;BME280;3957;48.61947800;9.05303100;2023-04-01T04:13:37;94750.50;;;4.19;100.00
7824;BME280;3957;48.61947800;9.05303100;2023-04-01T04:14:37;94762.28;;;4.16;100.00
7824;BME280;3957;48.61947800;9.05303100;2023-04-01T04:15:38;94750.25;;;4.14;100.00
7824;BME280;3957;48.61947800;9.05303100;2023-04-01T04:16:40;94751.50;;;4.18;100.00
7824;BME280;3957;48.61947800;9.05303100;2023-04-01T04:17:41;94746.00;;;4.19;100.00
7824;BME280;3957;48.61947800;9.05303100;2023-04-01T04:18:42;94740.13;;;4.24;100.00
7824;BME280;3957;48.61947800;9.05303100;2023-04-01T04:19:43;94742.31;;;4.14;100.00
7824;BME280;3957;48.61947800;9.05303100;2023-04-01T04:20:45;94746.53;;;4.01;100.00
7824;BME280;3957;48.61947800;9.05303100;2023-04-01T04:21:48;94754.13;;;4.11;100.00
7824;BME280;3957;48.61947800;9.05303100;2023-04-01T04:22:49;94743.97;;;4.15;100.00
7824;BME280;3957;48.61947800;9.05303100;2023-04-01T04:23:50;94736.41;;;4.18;100.00
7824;BME280;3957;48.61947800;9.05303100;2023-04-01T04:24:53;94746.38;;;4.09;100.00
7824;BME280;3957;48.61947800;9.05303100;2023-04-01T04:25:58;94749.81;;;4.10;100.00
7824;BME280;3957;48.61947800;9.05303100;2023-04-01T04:27:00;94753.72;;;4.14;100.00
7824;BME280;3957;48.61947800;9.05303100;2023-04-01T04:28:01;94754.13;;;4.11;100.00
7824;BME280;3957;48.61947800;9.05303100;2023-04-01T04:29:01;94751.50;;;4.18;100.00
7824;BME280;3957;48.61947800;9.05303100;2023-04-01T04:30:04;94757.22;;;4.21;100.00
7824;BME280;3957;48.61947800;9.05303100;2023-04-01T04:31:06;94752.53;;;4.23;100.00
7824;BME280;3957;48.61947800;9.05303100;2023-04-01T04:32:08;94758.03;;;4.22;100.00
7824;BME280;3957;48.61947800;9.05303100;2023-04-01T04:33:08;94756.19;;;4.16;100.00
7824;BME280;3957;48.61947800;9.05303100;2023-04-01T04:34:08;94749.03;;;4.09;100.00
7824;BME280;3957;48.61947800;9.05303100;2023-04-01T04:35:10;94751.44;;;4.04;100.00
7824;BME280;3957;48.61947800;9.05303100;2023-04-01T04:36:10;94750.03;;;4.08;100.00
7824;BME280;3957;48.61947800;9.05303100;2023-04-01T04:37:11;94753.09;;;4.12;100.00
7824;BME280;3957;48.61947800;9.05303100;2023-04-01T04:38:11;94757.44;;;4.20;100.00
7824;BME280;3957;48.61947800;9.05303100;2023-04-01T04:39:12;94747.84;;;4.19;100.00
7824;BME280;3957;48.61947800;9.05303100;2023-04-01T04:40:14;94747.88;;;4.25;100.00
7824;BME280;3957;48.61947800;9.05303100;2023-04-01T04:41:17;94758.84;;;4.22;100.00
7824;BME280;3957;48.61947800;9.05303100;2023-04-01T04:42:21;94749.50;;;4.26;100.00
7824;BME280;3957;48.61947800;9.05303100;2023-04-01T04:43:23;94754.81;;;4.33;100.00
7824;BME280;3957;48.61947800;9.05303100;2023-04-01T04:44:24;94758.31;;;4.34;100.00
7824;BME280;3957;48.61947800;9.05303100;2023-04-01T04:45:25;94757.47;;;4.33;100.00
7824;BME280;3957;48.61947800;9.05303100;2023-04-01T04:46:28;94755.09;;;4.52;100.00
7824;BME280;3957;48.61947800;9.05303100;2023-04-01T04:47:37;94754.69;;;4.48;100.00
7824;BME280;3957;48.61947800;9.05303100;2023-04-01T04:48:38;94758.56;;;4.52;100.00
7824;BME280;3957;48.61947800;9.05303100;2023-04-01T04:49:38;94755.31;;;4.57;100.00
7824;BME280;3957;48.61947800;9.05303100;2023-04-01T04:50:42;94747.19;;;4.58;100.00
7824;BME280;3957;48.61947800;9.05303100;2023-04-01T04:51:43;94751.44;;;4.59;100.00
7824;BME280;3957;48.61947800;9.05303100;2023-04-01T04:52:44;94757.78;;;4.58;100.00
7824;BME280;3957;48.61947800;9.05303100;2023-04-01T04:53:44;94759.81;;;4.63;100.00
7824;BME280;3957;48.61947800;9.05303100;2023-04-01T04:54:45;94760.63;;;4.64;100.00
7824;BME280;3957;48.61947800;9.05303100;2023-04-01T04:55:47;94759.88;;;4.76;100.00
7824;BME280;3957;48.61947800;9.05303100;2023-04-01T04:57:17;94761.91;;;4.81;100.00
7824;BME280;3957;48.61947800;9.05303100;2023-04-01T04:58:24;94753.75;;;4.89;100.00
7824;BME280;3957;48.61947800;9.05303100;2023-04-01T04:59:25;94763.75;;;4.87;100.00
7824;BME280;3957;48.61947800;9.05303100;2023-04-01T05:00:40;94756.41;;;4.83;100.00
7824;BME280;3957;48.61947800;9.05303100;2023-04-01T05:01:44;94752.09;;;4.82;100.00
7824;BME280;3957;48.61947800;9.05303100;2023-04-01T05:02:45;94750.50;;;4.94;100.00
7824;BME280;3957;48.61947800;9.05303100;2023-04-01T05:03:46;94753.97;;;5.01;100.00
7824;BME280;3957;48.61947800;9.05303100;2023-04-01T05:04:46;94752.56;;;4.99;100.00
7824;BME280;3957;48.61947800;9.05303100;2023-04-01T05:05:53;94750.72;;;4.99;100.00
7824;BME280;3957;48.61947800;9.05303100;2023-04-01T05:06:54;94753.38;;;5.06;100.00
7824;BME280;3957;48.61947800;9.05303100;2023-04-01T05:07:55;94753.19;;;5.07;100.00
7824;BME280;3957;48.61947800;9.05303100;2023-04-01T05:08:55;94747.66;;;5.09;100.00
7824;BME280;3957;48.61947800;9.05303100;2023-04-01T05:09:57;94745.22;;;5.14;100.00
7824;BME280;3957;48.61947800;9.05303100;2023-04-01T05:10:57;94745.03;;;5.16;100.00
7824;BME280;3957;48.61947800;9.05303100;2023-04-01T05:11:58;94755.22;;;5.12;100.00
7824;BME280;3957;48.61947800;9.05303100;2023-04-01T05:13:00;94756.44;;;5.16;100.00
7824;BME280;3957;48.61947800;9.05303100;2023-04-01T05:14:01;94755.44;;;5.17;100.00
7824;BME280;3957;48.61947800;9.05303100;2023-04-01T05:15:06;94754.00;;;5.15;100.00
7824;BME280;3957;48.61947800;9.05303100;2023-04-01T05:16:12;94750.31;;;5.09;100.00
7824;BME280;3957;48.61947800;9.05303100;2023-04-01T05:17:13;94754.41;;;5.18;100.00
7824;BME280;3957;48.61947800;9.05303100;2023-04-01T05:18:13;94750.34;;;5.16;100.00